PWSweather.com
Personal Weather Stations
Station Observations
KB2SBX
Sugarloaf, Sugarloaf, PA 18249

SugarloafSugarloaf, PA 18249

Lat: 41.0126685, Lon: -76.1082041

Elevation: 1030

Station Type: WS-2080

http://sugarloafpaweather.webng.com/weather.shtml

High Low Average
Temperature 31.2°F-0.4°F 21.0°F-6.1°F 27.5°F-2.5°F
Dew Point 19.0°F-7.2°F 13.6°F-10.2°F 16.6°F-8.6°F
Winds 2.0 mph NNE3.2 mph NNE Calm Calm 0.3 mph 0.5 mph
Wind Gusts 6.0 mph9.7 mph -- 1.5 mph2.4 mph
Humidity 75% 58% 63%
Pressure 30.38 in1028.80 in 30.27 in1025.10 in -
Precipitation 0.00 in0.00 in - -
Hour Temp Dew Point Humidity Winds Wind Gusts Pressure Precip Precip Rate Daily Precip Total
12:00 AM 27.8°F-2.3°C 16.1°F-8.8°C 61% Calm Calm -- 30.28 in1025.4 mb 0.00 in0.0 mm 0.00 in/hr0.0 mm/hr 0.00 in0.0 mm
12:05 AM 27.8°F-2.3°C 16.1°F-8.8°C 61% Calm Calm -- 30.28 in1025.4 mb 0.00 in0.0 mm 0.00 in/hr0.0 mm/hr 0.00 in0.0 mm
12:10 AM 27.8°F-2.3°C 16.1°F-8.8°C 61% Calm Calm -- 30.28 in1025.4 mb 0.00 in0.0 mm 0.00 in/hr0.0 mm/hr 0.00 in0.0 mm
12:15 AM 27.8°F-2.3°C 16.1°F-8.8°C 61% Calm Calm 1.0 mph1.6 kmh 30.28 in1025.4 mb 0.00 in0.0 mm 0.00 in/hr0.0 mm/hr 0.00 in0.0 mm
12:20 AM 27.8°F-2.3°C 16.1°F-8.8°C 61% Calm Calm -- 30.28 in1025.4 mb 0.00 in0.0 mm 0.00 in/hr0.0 mm/hr 0.00 in0.0 mm
12:25 AM 27.8°F-2.3°C 16.1°F-8.8°C 61% Calm Calm 1.0 mph1.6 kmh 30.28 in1025.4 mb 0.00 in0.0 mm 0.00 in/hr0.0 mm/hr 0.00 in0.0 mm
12:30 AM 27.8°F-2.3°C 16.1°F-8.8°C 61% Calm Calm 1.0 mph1.6 kmh 30.28 in1025.4 mb 0.00 in0.0 mm 0.00 in/hr0.0 mm/hr 0.00 in0.0 mm
12:35 AM 27.8°F-2.3°C 16.5°F-8.6°C 62% Calm Calm 1.0 mph1.6 kmh 30.28 in1025.4 mb 0.00 in0.0 mm 0.00 in/hr0.0 mm/hr 0.00 in0.0 mm
12:40 AM 27.8°F-2.3°C 16.1°F-8.8°C 61% Calm Calm 1.0 mph1.6 kmh 30.28 in1025.4 mb 0.00 in0.0 mm 0.00 in/hr0.0 mm/hr 0.00 in0.0 mm
12:45 AM 27.6°F-2.4°C 16.0°F-8.9°C 61% Calm Calm 2.0 mph3.2 kmh 30.28 in1025.4 mb 0.00 in0.0 mm 0.00 in/hr0.0 mm/hr 0.00 in0.0 mm
12:50 AM 27.6°F-2.4°C 16.0°F-8.9°C 61% Calm Calm 1.0 mph1.6 kmh 30.28 in1025.4 mb 0.00 in0.0 mm 0.00 in/hr0.0 mm/hr 0.00 in0.0 mm
12:55 AM 27.6°F-2.4°C 16.0°F-8.9°C 61% Calm Calm 2.0 mph3.2 kmh 30.28 in1025.4 mb 0.00 in0.0 mm 0.00 in/hr0.0 mm/hr 0.00 in0.0 mm
01:00 AM 27.6°F-2.4°C 16.0°F-8.9°C 61% Calm Calm 1.0 mph1.6 kmh 30.28 in1025.4 mb 0.00 in0.0 mm 0.00 in/hr0.0 mm/hr 0.00 in0.0 mm
01:05 AM 27.6°F-2.4°C 16.0°F-8.9°C 61% Calm Calm -- 30.28 in1025.4 mb 0.00 in0.0 mm 0.00 in/hr0.0 mm/hr 0.00 in0.0 mm
01:10 AM 27.6°F-2.4°C 16.0°F-8.9°C 61% Calm Calm -- 30.28 in1025.4 mb 0.00 in0.0 mm 0.00 in/hr0.0 mm/hr 0.00 in0.0 mm
01:15 AM 27.6°F-2.4°C 16.0°F-8.9°C 61% Calm Calm 1.0 mph1.6 kmh 30.28 in1025.4 mb 0.00 in0.0 mm 0.00 in/hr0.0 mm/hr 0.00 in0.0 mm
01:20 AM 27.6°F-2.4°C 16.0°F-8.9°C 61% Calm Calm 2.0 mph3.2 kmh 30.28 in1025.4 mb 0.00 in0.0 mm 0.00 in/hr0.0 mm/hr 0.00 in0.0 mm
01:25 AM 27.6°F-2.4°C 16.0°F-8.9°C 61% Calm Calm -- 30.28 in1025.4 mb 0.00 in0.0 mm 0.00 in/hr0.0 mm/hr 0.00 in0.0 mm
01:30 AM 27.6°F-2.4°C 16.0°F-8.9°C 61% Calm Calm -- 30.27 in1025.1 mb 0.00 in0.0 mm 0.00 in/hr0.0 mm/hr 0.00 in0.0 mm
01:35 AM 27.6°F-2.4°C 16.3°F-8.7°C 62% Calm Calm 2.0 mph3.2 kmh 30.27 in1025.1 mb 0.00 in0.0 mm 0.00 in/hr0.0 mm/hr 0.00 in0.0 mm
01:40 AM 27.6°F-2.4°C 16.3°F-8.7°C 62% Calm Calm 1.0 mph1.6 kmh 30.28 in1025.4 mb 0.00 in0.0 mm 0.00 in/hr0.0 mm/hr 0.00 in0.0 mm
01:45 AM 27.6°F-2.4°C 16.3°F-8.7°C 62% 1.0 mph ENE1.6 kmh ENE 2.0 mph3.2 kmh 30.28 in1025.4 mb 0.00 in0.0 mm 0.00 in/hr0.0 mm/hr 0.00 in0.0 mm
01:50 AM 27.6°F-2.4°C 16.3°F-8.7°C 62% Calm Calm 2.0 mph3.2 kmh 30.28 in1025.4 mb 0.00 in0.0 mm 0.00 in/hr0.0 mm/hr 0.00 in0.0 mm
01:55 AM 27.5°F-2.5°C 16.2°F-8.8°C 62% Calm Calm 1.0 mph1.6 kmh 30.28 in1025.4 mb 0.00 in0.0 mm 0.00 in/hr0.0 mm/hr 0.00 in0.0 mm
02:00 AM 27.5°F-2.5°C 16.2°F-8.8°C 62% Calm Calm 2.0 mph3.2 kmh 30.28 in1025.4 mb 0.00 in0.0 mm 0.00 in/hr0.0 mm/hr 0.00 in0.0 mm
02:05 AM 27.5°F-2.5°C 16.2°F-8.8°C 62% 1.0 mph NNW1.6 kmh NNW 2.0 mph3.2 kmh 30.28 in1025.4 mb 0.00 in0.0 mm 0.00 in/hr0.0 mm/hr 0.00 in0.0 mm
02:10 AM 27.5°F-2.5°C 16.2°F-8.8°C 62% Calm Calm 1.0 mph1.6 kmh 30.28 in1025.4 mb 0.00 in0.0 mm 0.00 in/hr0.0 mm/hr 0.00 in0.0 mm
02:15 AM 27.5°F-2.5°C 16.2°F-8.8°C 62% Calm Calm 1.0 mph1.6 kmh 30.28 in1025.4 mb 0.00 in0.0 mm 0.00 in/hr0.0 mm/hr 0.00 in0.0 mm
02:20 AM 27.5°F-2.5°C 16.2°F-8.8°C 62% Calm Calm -- 30.28 in1025.4 mb 0.00 in0.0 mm 0.00 in/hr0.0 mm/hr 0.00 in0.0 mm
02:25 AM 27.5°F-2.5°C 16.2°F-8.8°C 62% Calm Calm 1.0 mph1.6 kmh 30.28 in1025.4 mb 0.00 in0.0 mm 0.00 in/hr0.0 mm/hr 0.00 in0.0 mm
02:30 AM 27.5°F-2.5°C 16.2°F-8.8°C 62% Calm Calm 1.0 mph1.6 kmh 30.29 in1025.7 mb 0.00 in0.0 mm 0.00 in/hr0.0 mm/hr 0.00 in0.0 mm
02:35 AM 27.5°F-2.5°C 16.2°F-8.8°C 62% Calm Calm -- 30.29 in1025.7 mb 0.00 in0.0 mm 0.00 in/hr0.0 mm/hr 0.00 in0.0 mm
02:40 AM 27.5°F-2.5°C 16.2°F-8.8°C 62% Calm Calm -- 30.29 in1025.7 mb 0.00 in0.0 mm 0.00 in/hr0.0 mm/hr 0.00 in0.0 mm
02:45 AM 27.5°F-2.5°C 16.2°F-8.8°C 62% Calm Calm -- 30.29 in1025.7 mb 0.00 in0.0 mm 0.00 in/hr0.0 mm/hr 0.00 in0.0 mm
02:50 AM 27.5°F-2.5°C 16.2°F-8.8°C 62% Calm Calm -- 30.29 in1025.7 mb 0.00 in0.0 mm 0.00 in/hr0.0 mm/hr 0.00 in0.0 mm
02:55 AM 27.5°F-2.5°C 16.2°F-8.8°C 62% Calm Calm -- 30.29 in1025.7 mb 0.00 in0.0 mm 0.00 in/hr0.0 mm/hr 0.00 in0.0 mm
03:00 AM 27.5°F-2.5°C 16.2°F-8.8°C 62% Calm Calm 1.0 mph1.6 kmh 30.29 in1025.7 mb 0.00 in0.0 mm 0.00 in/hr0.0 mm/hr 0.00 in0.0 mm
03:05 AM 27.5°F-2.5°C 16.2°F-8.8°C 62% Calm Calm 1.0 mph1.6 kmh 30.29 in1025.7 mb 0.00 in0.0 mm 0.00 in/hr0.0 mm/hr 0.00 in0.0 mm
03:10 AM 27.5°F-2.5°C 16.2°F-8.8°C 62% Calm Calm 1.0 mph1.6 kmh 30.29 in1025.7 mb 0.00 in0.0 mm 0.00 in/hr0.0 mm/hr 0.00 in0.0 mm
03:15 AM 27.5°F-2.5°C 16.2°F-8.8°C 62% Calm Calm 2.0 mph3.2 kmh 30.29 in1025.7 mb 0.00 in0.0 mm 0.00 in/hr0.0 mm/hr 0.00 in0.0 mm
03:20 AM 27.5°F-2.5°C 16.2°F-8.8°C 62% Calm Calm 1.0 mph1.6 kmh 30.28 in1025.4 mb 0.00 in0.0 mm 0.00 in/hr0.0 mm/hr 0.00 in0.0 mm
03:25 AM 27.5°F-2.5°C 16.2°F-8.8°C 62% 1.0 mph NNW1.6 kmh NNW 2.0 mph3.2 kmh 30.29 in1025.7 mb 0.00 in0.0 mm 0.00 in/hr0.0 mm/hr 0.00 in0.0 mm
03:30 AM 27.5°F-2.5°C 16.2°F-8.8°C 62% Calm Calm 2.0 mph3.2 kmh 30.28 in1025.4 mb 0.00 in0.0 mm 0.00 in/hr0.0 mm/hr 0.00 in0.0 mm
03:35 AM 27.5°F-2.5°C 16.2°F-8.8°C 62% 1.0 mph NNE1.6 kmh NNE 2.0 mph3.2 kmh 30.28 in1025.4 mb 0.00 in0.0 mm 0.00 in/hr0.0 mm/hr 0.00 in0.0 mm
03:40 AM 27.5°F-2.5°C 16.2°F-8.8°C 62% Calm Calm 2.0 mph3.2 kmh 30.28 in1025.4 mb 0.00 in0.0 mm 0.00 in/hr0.0 mm/hr 0.00 in0.0 mm
03:45 AM 27.3°F-2.6°C 16.0°F-8.9°C 62% Calm Calm 2.0 mph3.2 kmh 30.28 in1025.4 mb 0.00 in0.0 mm 0.00 in/hr0.0 mm/hr 0.00 in0.0 mm
03:50 AM 27.3°F-2.6°C 16.0°F-8.9°C 62% Calm Calm 1.0 mph1.6 kmh 30.28 in1025.4 mb 0.00 in0.0 mm 0.00 in/hr0.0 mm/hr 0.00 in0.0 mm
03:55 AM 27.5°F-2.5°C 16.5°F-8.6°C 63% Calm Calm 1.0 mph1.6 kmh 30.29 in1025.7 mb 0.00 in0.0 mm 0.00 in/hr0.0 mm/hr 0.00 in0.0 mm
04:00 AM 27.5°F-2.5°C 16.2°F-8.8°C 62% Calm Calm 1.0 mph1.6 kmh 30.28 in1025.4 mb 0.00 in0.0 mm 0.00 in/hr0.0 mm/hr 0.00 in0.0 mm
04:05 AM 27.3°F-2.6°C 16.0°F-8.9°C 62% Calm Calm 2.0 mph3.2 kmh 30.29 in1025.7 mb 0.00 in0.0 mm 0.00 in/hr0.0 mm/hr 0.00 in0.0 mm
04:10 AM 27.3°F-2.6°C 16.0°F-8.9°C 62% Calm Calm 1.0 mph1.6 kmh 30.28 in1025.4 mb 0.00 in0.0 mm 0.00 in/hr0.0 mm/hr 0.00 in0.0 mm
04:15 AM 27.3°F-2.6°C 16.4°F-8.7°C 63% Calm Calm 1.0 mph1.6 kmh 30.29 in1025.7 mb 0.00 in0.0 mm 0.00 in/hr0.0 mm/hr 0.00 in0.0 mm
04:20 AM 27.3°F-2.6°C 16.4°F-8.7°C 63% 1.0 mph ENE1.6 kmh ENE 2.0 mph3.2 kmh 30.29 in1025.7 mb 0.00 in0.0 mm 0.00 in/hr0.0 mm/hr 0.00 in0.0 mm
04:25 AM 27.3°F-2.6°C 16.4°F-8.7°C 63% Calm Calm 1.0 mph1.6 kmh 30.29 in1025.7 mb 0.00 in0.0 mm 0.00 in/hr0.0 mm/hr 0.00 in0.0 mm
04:30 AM 27.3°F-2.6°C 16.4°F-8.7°C 63% Calm Calm 1.0 mph1.6 kmh 30.29 in1025.7 mb 0.00 in0.0 mm 0.00 in/hr0.0 mm/hr 0.00 in0.0 mm
04:35 AM 27.3°F-2.6°C 16.4°F-8.7°C 63% Calm Calm 1.0 mph1.6 kmh 30.29 in1025.7 mb 0.00 in0.0 mm 0.00 in/hr0.0 mm/hr 0.00 in0.0 mm
04:40 AM 27.3°F-2.6°C 16.4°F-8.7°C 63% Calm Calm 2.0 mph3.2 kmh 30.29 in1025.7 mb 0.00 in0.0 mm 0.00 in/hr0.0 mm/hr 0.00 in0.0 mm
04:45 AM 27.3°F-2.6°C 16.4°F-8.7°C 63% Calm Calm 1.0 mph1.6 kmh 30.29 in1025.7 mb 0.00 in0.0 mm 0.00 in/hr0.0 mm/hr 0.00 in0.0 mm
04:50 AM 27.3°F-2.6°C 16.4°F-8.7°C 63% Calm Calm 1.0 mph1.6 kmh 30.29 in1025.7 mb 0.00 in0.0 mm 0.00 in/hr0.0 mm/hr 0.00 in0.0 mm
04:55 AM 27.3°F-2.6°C 16.4°F-8.7°C 63% Calm Calm 2.0 mph3.2 kmh 30.29 in1025.7 mb 0.00 in0.0 mm 0.00 in/hr0.0 mm/hr 0.00 in0.0 mm
05:00 AM 27.3°F-2.6°C 16.0°F-8.9°C 62% Calm Calm 1.0 mph1.6 kmh 30.29 in1025.7 mb 0.00 in0.0 mm 0.00 in/hr0.0 mm/hr 0.00 in0.0 mm
05:05 AM 27.3°F-2.6°C 16.0°F-8.9°C 62% Calm Calm 1.0 mph1.6 kmh 30.29 in1025.7 mb 0.00 in0.0 mm 0.00 in/hr0.0 mm/hr 0.00 in0.0 mm
05:10 AM 27.3°F-2.6°C 16.0°F-8.9°C 62% Calm Calm 2.0 mph3.2 kmh 30.29 in1025.7 mb 0.00 in0.0 mm 0.00 in/hr0.0 mm/hr 0.00 in0.0 mm
05:15 AM 27.3°F-2.6°C 16.0°F-8.9°C 62% Calm Calm 1.0 mph1.6 kmh 30.29 in1025.7 mb 0.00 in0.0 mm 0.00 in/hr0.0 mm/hr 0.00 in0.0 mm
05:20 AM 27.3°F-2.6°C 16.0°F-8.9°C 62% Calm Calm -- 30.29 in1025.7 mb 0.00 in0.0 mm 0.00 in/hr0.0 mm/hr 0.00 in0.0 mm
05:25 AM 27.3°F-2.6°C 16.0°F-8.9°C 62% Calm Calm 1.0 mph1.6 kmh 30.30 in1026.1 mb 0.00 in0.0 mm 0.00 in/hr0.0 mm/hr 0.00 in0.0 mm
05:30 AM 27.1°F-2.7°C 15.8°F-9.0°C 62% Calm Calm -- 30.30 in1026.1 mb 0.00 in0.0 mm 0.00 in/hr0.0 mm/hr 0.00 in0.0 mm
05:35 AM 27.1°F-2.7°C 15.8°F-9.0°C 62% Calm Calm 1.0 mph1.6 kmh 30.30 in1026.1 mb 0.00 in0.0 mm 0.00 in/hr0.0 mm/hr 0.00 in0.0 mm
05:40 AM 27.1°F-2.7°C 15.8°F-9.0°C 62% Calm Calm 3.0 mph4.8 kmh 30.30 in1026.1 mb 0.00 in0.0 mm 0.00 in/hr0.0 mm/hr 0.00 in0.0 mm
05:45 AM 27.1°F-2.7°C 15.8°F-9.0°C 62% Calm Calm 1.0 mph1.6 kmh 30.30 in1026.1 mb 0.00 in0.0 mm 0.00 in/hr0.0 mm/hr 0.00 in0.0 mm
05:50 AM 27.1°F-2.7°C 15.8°F-9.0°C 62% Calm Calm -- 30.31 in1026.4 mb 0.00 in0.0 mm 0.00 in/hr0.0 mm/hr 0.00 in0.0 mm
05:55 AM 27.1°F-2.7°C 15.8°F-9.0°C 62% Calm Calm 2.0 mph3.2 kmh 30.31 in1026.4 mb 0.00 in0.0 mm 0.00 in/hr0.0 mm/hr 0.00 in0.0 mm
06:00 AM 27.1°F-2.7°C 15.8°F-9.0°C 62% Calm Calm 1.0 mph1.6 kmh 30.31 in1026.4 mb 0.00 in0.0 mm 0.00 in/hr0.0 mm/hr 0.00 in0.0 mm
06:05 AM 27.1°F-2.7°C 15.8°F-9.0°C 62% Calm Calm -- 30.31 in1026.4 mb 0.00 in0.0 mm 0.00 in/hr0.0 mm/hr 0.00 in0.0 mm
06:10 AM 27.1°F-2.7°C 15.8°F-9.0°C 62% Calm Calm 2.0 mph3.2 kmh 30.31 in1026.4 mb 0.00 in0.0 mm 0.00 in/hr0.0 mm/hr 0.00 in0.0 mm
06:15 AM 27.1°F-2.7°C 15.8°F-9.0°C 62% Calm Calm 2.0 mph3.2 kmh 30.31 in1026.4 mb 0.00 in0.0 mm 0.00 in/hr0.0 mm/hr 0.00 in0.0 mm
06:20 AM 27.1°F-2.7°C 15.8°F-9.0°C 62% Calm Calm 2.0 mph3.2 kmh 30.30 in1026.1 mb 0.00 in0.0 mm 0.00 in/hr0.0 mm/hr 0.00 in0.0 mm
06:25 AM 27.1°F-2.7°C 15.8°F-9.0°C 62% Calm Calm 2.0 mph3.2 kmh 30.31 in1026.4 mb 0.00 in0.0 mm 0.00 in/hr0.0 mm/hr 0.00 in0.0 mm
06:30 AM 27.1°F-2.7°C 15.8°F-9.0°C 62% Calm Calm 1.0 mph1.6 kmh 30.31 in1026.4 mb 0.00 in0.0 mm 0.00 in/hr0.0 mm/hr 0.00 in0.0 mm
06:35 AM 27.1°F-2.7°C 15.8°F-9.0°C 62% Calm Calm 1.0 mph1.6 kmh 30.31 in1026.4 mb 0.00 in0.0 mm 0.00 in/hr0.0 mm/hr 0.00 in0.0 mm
06:40 AM 27.1°F-2.7°C 15.8°F-9.0°C 62% Calm Calm 1.0 mph1.6 kmh 30.31 in1026.4 mb 0.00 in0.0 mm 0.00 in/hr0.0 mm/hr 0.00 in0.0 mm
06:45 AM 27.1°F-2.7°C 15.8°F-9.0°C 62% Calm Calm 1.0 mph1.6 kmh 30.31 in1026.4 mb 0.00 in0.0 mm 0.00 in/hr0.0 mm/hr 0.00 in0.0 mm
06:50 AM 27.1°F-2.7°C 15.8°F-9.0°C 62% Calm Calm 1.0 mph1.6 kmh 30.31 in1026.4 mb 0.00 in0.0 mm 0.00 in/hr0.0 mm/hr 0.00 in0.0 mm
06:55 AM 27.1°F-2.7°C 15.8°F-9.0°C 62% Calm Calm 2.0 mph3.2 kmh 30.31 in1026.4 mb 0.00 in0.0 mm 0.00 in/hr0.0 mm/hr 0.00 in0.0 mm
07:00 AM 27.1°F-2.7°C 15.8°F-9.0°C 62% Calm Calm -- 30.31 in1026.4 mb 0.00 in0.0 mm 0.00 in/hr0.0 mm/hr 0.00 in0.0 mm
07:05 AM 27.1°F-2.7°C 15.8°F-9.0°C 62% Calm Calm -- 30.32 in1026.8 mb 0.00 in0.0 mm 0.00 in/hr0.0 mm/hr 0.00 in0.0 mm
07:10 AM 27.1°F-2.7°C 15.8°F-9.0°C 62% Calm Calm 1.0 mph1.6 kmh 30.32 in1026.8 mb 0.00 in0.0 mm 0.00 in/hr0.0 mm/hr 0.00 in0.0 mm
07:15 AM 27.1°F-2.7°C 15.8°F-9.0°C 62% Calm Calm 1.0 mph1.6 kmh 30.32 in1026.8 mb 0.00 in0.0 mm 0.00 in/hr0.0 mm/hr 0.00 in0.0 mm
07:20 AM 27.1°F-2.7°C 15.8°F-9.0°C 62% Calm Calm -- 30.32 in1026.8 mb 0.00 in0.0 mm 0.00 in/hr0.0 mm/hr 0.00 in0.0 mm
07:25 AM 27.1°F-2.7°C 15.8°F-9.0°C 62% Calm Calm 1.0 mph1.6 kmh 30.33 in1027.1 mb 0.00 in0.0 mm 0.00 in/hr0.0 mm/hr 0.00 in0.0 mm
07:30 AM 27.1°F-2.7°C 15.8°F-9.0°C 62% Calm Calm 1.0 mph1.6 kmh 30.32 in1026.8 mb 0.00 in0.0 mm 0.00 in/hr0.0 mm/hr 0.00 in0.0 mm
07:35 AM 27.1°F-2.7°C 15.8°F-9.0°C 62% Calm Calm 1.0 mph1.6 kmh 30.32 in1026.8 mb 0.00 in0.0 mm 0.00 in/hr0.0 mm/hr 0.00 in0.0 mm
07:40 AM 27.1°F-2.7°C 16.2°F-8.8°C 63% Calm Calm 1.0 mph1.6 kmh 30.33 in1027.1 mb 0.00 in0.0 mm 0.00 in/hr0.0 mm/hr 0.00 in0.0 mm
07:45 AM 27.1°F-2.7°C 16.2°F-8.8°C 63% Calm Calm 1.0 mph1.6 kmh 30.32 in1026.8 mb 0.00 in0.0 mm 0.00 in/hr0.0 mm/hr 0.00 in0.0 mm
07:50 AM 27.1°F-2.7°C 16.2°F-8.8°C 63% Calm Calm 2.0 mph3.2 kmh 30.32 in1026.8 mb 0.00 in0.0 mm 0.00 in/hr0.0 mm/hr 0.00 in0.0 mm
07:55 AM 27.1°F-2.7°C 15.8°F-9.0°C 62% Calm Calm 1.0 mph1.6 kmh 30.32 in1026.8 mb 0.00 in0.0 mm 0.00 in/hr0.0 mm/hr 0.00 in0.0 mm
08:00 AM 27.1°F-2.7°C 15.8°F-9.0°C 62% Calm Calm 1.0 mph1.6 kmh 30.33 in1027.1 mb 0.00 in0.0 mm 0.00 in/hr0.0 mm/hr 0.00 in0.0 mm
08:05 AM 27.1°F-2.7°C 15.8°F-9.0°C 62% Calm Calm 1.0 mph1.6 kmh 30.33 in1027.1 mb 0.00 in0.0 mm 0.00 in/hr0.0 mm/hr 0.00 in0.0 mm
08:10 AM 27.3°F-2.6°C 16.0°F-8.9°C 62% 1.0 mph WSW1.6 kmh WSW 2.0 mph3.2 kmh 30.33 in1027.1 mb 0.00 in0.0 mm 0.00 in/hr0.0 mm/hr 0.00 in0.0 mm
08:15 AM 27.3°F-2.6°C 16.0°F-8.9°C 62% Calm Calm 3.0 mph4.8 kmh 30.33 in1027.1 mb 0.00 in0.0 mm 0.00 in/hr0.0 mm/hr 0.00 in0.0 mm
08:20 AM 27.3°F-2.6°C 16.0°F-8.9°C 62% Calm Calm 2.0 mph3.2 kmh 30.34 in1027.4 mb 0.00 in0.0 mm 0.00 in/hr0.0 mm/hr 0.00 in0.0 mm
08:25 AM 27.3°F-2.6°C 16.0°F-8.9°C 62% Calm Calm 2.0 mph3.2 kmh 30.34 in1027.4 mb 0.00 in0.0 mm 0.00 in/hr0.0 mm/hr 0.00 in0.0 mm
08:30 AM 27.5°F-2.5°C 16.2°F-8.8°C 62% Calm Calm 1.0 mph1.6 kmh 30.34 in1027.4 mb 0.00 in0.0 mm 0.00 in/hr0.0 mm/hr 0.00 in0.0 mm
08:35 AM 27.5°F-2.5°C 16.2°F-8.8°C 62% Calm Calm 1.0 mph1.6 kmh 30.34 in1027.4 mb 0.00 in0.0 mm 0.00 in/hr0.0 mm/hr 0.00 in0.0 mm
08:40 AM 27.5°F-2.5°C 16.2°F-8.8°C 62% Calm Calm 1.0 mph1.6 kmh 30.34 in1027.4 mb 0.00 in0.0 mm 0.00 in/hr0.0 mm/hr 0.00 in0.0 mm
08:45 AM 27.5°F-2.5°C 16.2°F-8.8°C 62% Calm Calm 1.0 mph1.6 kmh 30.34 in1027.4 mb 0.00 in0.0 mm 0.00 in/hr0.0 mm/hr 0.00 in0.0 mm
08:50 AM 27.5°F-2.5°C 16.2°F-8.8°C 62% Calm Calm 1.0 mph1.6 kmh 30.35 in1027.8 mb 0.00 in0.0 mm 0.00 in/hr0.0 mm/hr 0.00 in0.0 mm
08:55 AM 27.6°F-2.4°C 16.3°F-8.7°C 62% Calm Calm 2.0 mph3.2 kmh 30.35 in1027.8 mb 0.00 in0.0 mm 0.00 in/hr0.0 mm/hr 0.00 in0.0 mm
09:00 AM 27.6°F-2.4°C 16.3°F-8.7°C 62% Calm Calm 1.0 mph1.6 kmh 30.35 in1027.8 mb 0.00 in0.0 mm 0.00 in/hr0.0 mm/hr 0.00 in0.0 mm
09:05 AM 27.6°F-2.4°C 16.3°F-8.7°C 62% Calm Calm 1.0 mph1.6 kmh 30.35 in1027.8 mb 0.00 in0.0 mm 0.00 in/hr0.0 mm/hr 0.00 in0.0 mm
09:10 AM 27.8°F-2.3°C 16.5°F-8.6°C 62% Calm Calm 1.0 mph1.6 kmh 30.35 in1027.8 mb 0.00 in0.0 mm 0.00 in/hr0.0 mm/hr 0.00 in0.0 mm
09:15 AM 27.8°F-2.3°C 16.5°F-8.6°C 62% Calm Calm 2.0 mph3.2 kmh 30.35 in1027.8 mb 0.00 in0.0 mm 0.00 in/hr0.0 mm/hr 0.00 in0.0 mm
09:20 AM 27.8°F-2.3°C 16.5°F-8.6°C 62% Calm Calm 2.0 mph3.2 kmh 30.35 in1027.8 mb 0.00 in0.0 mm 0.00 in/hr0.0 mm/hr 0.00 in0.0 mm
09:25 AM 28.0°F-2.2°C 16.3°F-8.7°C 61% Calm Calm 1.0 mph1.6 kmh 30.35 in1027.8 mb 0.00 in0.0 mm 0.00 in/hr0.0 mm/hr 0.00 in0.0 mm
09:30 AM 28.0°F-2.2°C 16.3°F-8.7°C 61% 1.0 mph SSW1.6 kmh SSW 2.0 mph3.2 kmh 30.35 in1027.8 mb 0.00 in0.0 mm 0.00 in/hr0.0 mm/hr 0.00 in0.0 mm
09:35 AM 28.2°F-2.1°C 16.8°F-8.4°C 62% Calm Calm 2.0 mph3.2 kmh 30.35 in1027.8 mb 0.00 in0.0 mm 0.00 in/hr0.0 mm/hr 0.00 in0.0 mm
09:40 AM 28.2°F-2.1°C 16.8°F-8.4°C 62% 1.0 mph SSW1.6 kmh SSW 2.0 mph3.2 kmh 30.35 in1027.8 mb 0.00 in0.0 mm 0.00 in/hr0.0 mm/hr 0.00 in0.0 mm
09:45 AM 28.4°F-2.0°C 18.5°F-7.5°C 66% Calm Calm 2.0 mph3.2 kmh 30.35 in1027.8 mb 0.00 in0.0 mm 0.00 in/hr0.0 mm/hr 0.00 in0.0 mm
09:50 AM 28.4°F-2.0°C 18.5°F-7.5°C 66% 2.0 mph NNW3.2 kmh NNW 3.0 mph4.8 kmh 30.35 in1027.8 mb 0.00 in0.0 mm 0.00 in/hr0.0 mm/hr 0.00 in0.0 mm
09:55 AM 28.4°F-2.0°C 18.1°F-7.7°C 65% 1.0 mph WSW1.6 kmh WSW 3.0 mph4.8 kmh 30.35 in1027.8 mb 0.00 in0.0 mm 0.00 in/hr0.0 mm/hr 0.00 in0.0 mm
10:00 AM 28.4°F-2.0°C 18.1°F-7.7°C 65% Calm Calm 2.0 mph3.2 kmh 30.36 in1028.1 mb 0.00 in0.0 mm 0.00 in/hr0.0 mm/hr 0.00 in0.0 mm
10:05 AM 28.5°F-1.9°C 18.3°F-7.6°C 65% Calm Calm 2.0 mph3.2 kmh 30.35 in1027.8 mb 0.00 in0.0 mm 0.00 in/hr0.0 mm/hr 0.00 in0.0 mm
10:10 AM 28.5°F-1.9°C 18.3°F-7.6°C 65% 2.0 mph NNW3.2 kmh NNW 4.0 mph6.4 kmh 30.35 in1027.8 mb 0.00 in0.0 mm 0.00 in/hr0.0 mm/hr 0.00 in0.0 mm
10:15 AM 28.5°F-1.9°C 18.3°F-7.6°C 65% 1.0 mph WNW1.6 kmh WNW 4.0 mph6.4 kmh 30.36 in1028.1 mb 0.00 in0.0 mm 0.00 in/hr0.0 mm/hr 0.00 in0.0 mm
10:20 AM 28.5°F-1.9°C 18.3°F-7.6°C 65% 1.0 mph NNE1.6 kmh NNE 3.0 mph4.8 kmh 30.36 in1028.1 mb 0.00 in0.0 mm 0.00 in/hr0.0 mm/hr 0.00 in0.0 mm
10:25 AM 28.5°F-1.9°C 18.3°F-7.6°C 65% 2.0 mph NNE3.2 kmh NNE 4.0 mph6.4 kmh 30.36 in1028.1 mb 0.00 in0.0 mm 0.00 in/hr0.0 mm/hr 0.00 in0.0 mm
10:30 AM 28.5°F-1.9°C 17.9°F-7.8°C 64% Calm Calm 2.0 mph3.2 kmh 30.36 in1028.1 mb 0.00 in0.0 mm 0.00 in/hr0.0 mm/hr 0.00 in0.0 mm
10:35 AM 28.7°F-1.8°C 18.1°F-7.7°C 64% Calm Calm 3.0 mph4.8 kmh 30.36 in1028.1 mb 0.00 in0.0 mm 0.00 in/hr0.0 mm/hr 0.00 in0.0 mm
10:40 AM 28.7°F-1.8°C 18.1°F-7.7°C 64% 1.0 mph NNE1.6 kmh NNE 4.0 mph6.4 kmh 30.36 in1028.1 mb 0.00 in0.0 mm 0.00 in/hr0.0 mm/hr 0.00 in0.0 mm
10:45 AM 28.5°F-1.9°C 17.9°F-7.8°C 64% Calm Calm 4.0 mph6.4 kmh 30.36 in1028.1 mb 0.00 in0.0 mm 0.00 in/hr0.0 mm/hr 0.00 in0.0 mm
10:50 AM 28.7°F-1.8°C 18.1°F-7.7°C 64% 1.0 mph SSW1.6 kmh SSW 3.0 mph4.8 kmh 30.36 in1028.1 mb 0.00 in0.0 mm 0.00 in/hr0.0 mm/hr 0.00 in0.0 mm
10:55 AM 28.7°F-1.8°C 18.1°F-7.7°C 64% 2.0 mph WNW3.2 kmh WNW 3.0 mph4.8 kmh 30.36 in1028.1 mb 0.00 in0.0 mm 0.00 in/hr0.0 mm/hr 0.00 in0.0 mm
11:00 AM 28.9°F-1.7°C 17.9°F-7.8°C 63% 1.0 mph NNW1.6 kmh NNW 3.0 mph4.8 kmh 30.36 in1028.1 mb 0.00 in0.0 mm 0.00 in/hr0.0 mm/hr 0.00 in0.0 mm
11:05 AM 28.9°F-1.7°C 17.9°F-7.8°C 63% 1.0 mph NNW1.6 kmh NNW 2.0 mph3.2 kmh 30.35 in1027.8 mb 0.00 in0.0 mm 0.00 in/hr0.0 mm/hr 0.00 in0.0 mm
11:10 AM 29.1°F-1.6°C 18.1°F-7.7°C 63% 1.0 mph ENE1.6 kmh ENE 3.0 mph4.8 kmh 30.35 in1027.8 mb 0.00 in0.0 mm 0.00 in/hr0.0 mm/hr 0.00 in0.0 mm
11:15 AM 29.1°F-1.6°C 18.1°F-7.7°C 63% 2.0 mph NNE3.2 kmh NNE 3.0 mph4.8 kmh 30.35 in1027.8 mb 0.00 in0.0 mm 0.00 in/hr0.0 mm/hr 0.00 in0.0 mm
11:20 AM 29.1°F-1.6°C 18.1°F-7.7°C 63% 1.0 mph NNW1.6 kmh NNW 6.0 mph9.7 kmh 30.35 in1027.8 mb 0.00 in0.0 mm 0.00 in/hr0.0 mm/hr 0.00 in0.0 mm
11:25 AM 29.1°F-1.6°C 18.1°F-7.7°C 63% Calm Calm 3.0 mph4.8 kmh 30.35 in1027.8 mb 0.00 in0.0 mm 0.00 in/hr0.0 mm/hr 0.00 in0.0 mm
11:30 AM 29.1°F-1.6°C 18.1°F-7.7°C 63% 1.0 mph NNW1.6 kmh NNW 3.0 mph4.8 kmh 30.35 in1027.8 mb 0.00 in0.0 mm 0.00 in/hr0.0 mm/hr 0.00 in0.0 mm
11:35 AM 29.3°F-1.5°C 18.2°F-7.7°C 63% 1.0 mph SSE1.6 kmh SSE 3.0 mph4.8 kmh 30.34 in1027.4 mb 0.00 in0.0 mm 0.00 in/hr0.0 mm/hr 0.00 in0.0 mm
11:40 AM 29.3°F-1.5°C 18.2°F-7.7°C 63% 2.0 mph NNW3.2 kmh NNW 3.0 mph4.8 kmh 30.34 in1027.4 mb 0.00 in0.0 mm 0.00 in/hr0.0 mm/hr 0.00 in0.0 mm
11:45 AM 29.6°F-1.3°C 18.6°F-7.4°C 63% 1.0 mph WNW1.6 kmh WNW 2.0 mph3.2 kmh 30.34 in1027.4 mb 0.00 in0.0 mm 0.00 in/hr0.0 mm/hr 0.00 in0.0 mm
11:50 AM 29.8°F-1.2°C 18.8°F-7.3°C 63% 1.0 mph NNE1.6 kmh NNE 3.0 mph4.8 kmh 30.34 in1027.4 mb 0.00 in0.0 mm 0.00 in/hr0.0 mm/hr 0.00 in0.0 mm
11:55 AM 29.6°F-1.3°C 18.2°F-7.7°C 62% Calm Calm 4.0 mph6.4 kmh 30.33 in1027.1 mb 0.00 in0.0 mm 0.00 in/hr0.0 mm/hr 0.00 in0.0 mm
12:00 PM 29.8°F-1.2°C 18.8°F-7.3°C 63% 2.0 mph NNE3.2 kmh NNE 3.0 mph4.8 kmh 30.33 in1027.1 mb 0.00 in0.0 mm 0.00 in/hr0.0 mm/hr 0.00 in0.0 mm
12:05 PM 29.8°F-1.2°C 18.8°F-7.3°C 63% 1.0 mph NNW1.6 kmh NNW 4.0 mph6.4 kmh 30.33 in1027.1 mb 0.00 in0.0 mm 0.00 in/hr0.0 mm/hr 0.00 in0.0 mm
12:10 PM 29.8°F-1.2°C 18.4°F-7.6°C 62% 1.0 mph ENE1.6 kmh ENE 2.0 mph3.2 kmh 30.33 in1027.1 mb 0.00 in0.0 mm 0.00 in/hr0.0 mm/hr 0.00 in0.0 mm
12:15 PM 29.8°F-1.2°C 18.4°F-7.6°C 62% Calm Calm 2.0 mph3.2 kmh 30.33 in1027.1 mb 0.00 in0.0 mm 0.00 in/hr0.0 mm/hr 0.00 in0.0 mm
12:20 PM 29.8°F-1.2°C 18.4°F-7.6°C 62% 2.0 mph NNE3.2 kmh NNE 4.0 mph6.4 kmh 30.33 in1027.1 mb 0.00 in0.0 mm 0.00 in/hr0.0 mm/hr 0.00 in0.0 mm
12:25 PM 29.6°F-1.3°C 18.2°F-7.7°C 62% 2.0 mph ENE3.2 kmh ENE 4.0 mph6.4 kmh 30.33 in1027.1 mb 0.00 in0.0 mm 0.00 in/hr0.0 mm/hr 0.00 in0.0 mm
12:30 PM 29.4°F-1.4°C 18.0°F-7.8°C 62% Calm Calm 5.0 mph8.0 kmh 30.33 in1027.1 mb 0.00 in0.0 mm 0.00 in/hr0.0 mm/hr 0.00 in0.0 mm
12:35 PM 29.6°F-1.3°C 18.2°F-7.7°C 62% Calm Calm 2.0 mph3.2 kmh 30.32 in1026.8 mb 0.00 in0.0 mm 0.00 in/hr0.0 mm/hr 0.00 in0.0 mm
12:40 PM 29.6°F-1.3°C 18.2°F-7.7°C 62% Calm Calm 3.0 mph4.8 kmh 30.32 in1026.8 mb 0.00 in0.0 mm 0.00 in/hr0.0 mm/hr 0.00 in0.0 mm
12:45 PM 30.0°F-1.1°C 18.6°F-7.4°C 62% Calm Calm 2.0 mph3.2 kmh 30.33 in1027.1 mb 0.00 in0.0 mm 0.00 in/hr0.0 mm/hr 0.00 in0.0 mm
12:50 PM 30.2°F-1.0°C 18.3°F-7.6°C 61% 1.0 mph WSW1.6 kmh WSW 2.0 mph3.2 kmh 30.32 in1026.8 mb 0.00 in0.0 mm 0.00 in/hr0.0 mm/hr 0.00 in0.0 mm
12:55 PM 30.2°F-1.0°C 18.3°F-7.6°C 61% 1.0 mph ESE1.6 kmh ESE 2.0 mph3.2 kmh 30.32 in1026.8 mb 0.00 in0.0 mm 0.00 in/hr0.0 mm/hr 0.00 in0.0 mm
01:00 PM 30.0°F-1.1°C 18.6°F-7.4°C 62% 2.0 mph NNE3.2 kmh NNE 4.0 mph6.4 kmh 30.32 in1026.8 mb 0.00 in0.0 mm 0.00 in/hr0.0 mm/hr 0.00 in0.0 mm
01:05 PM 30.0°F-1.1°C 18.6°F-7.4°C 62% Calm Calm 2.0 mph3.2 kmh 30.32 in1026.8 mb 0.00 in0.0 mm 0.00 in/hr0.0 mm/hr 0.00 in0.0 mm
01:10 PM 30.2°F-1.0°C 18.3°F-7.6°C 61% Calm Calm 2.0 mph3.2 kmh 30.32 in1026.8 mb 0.00 in0.0 mm 0.00 in/hr0.0 mm/hr 0.00 in0.0 mm
01:15 PM 30.3°F-0.9°C 18.5°F-7.5°C 61% Calm Calm 2.0 mph3.2 kmh 30.32 in1026.8 mb 0.00 in0.0 mm 0.00 in/hr0.0 mm/hr 0.00 in0.0 mm
01:20 PM 30.7°F-0.7°C 18.9°F-7.3°C 61% Calm Calm 2.0 mph3.2 kmh 30.32 in1026.8 mb 0.00 in0.0 mm 0.00 in/hr0.0 mm/hr 0.00 in0.0 mm
01:25 PM 30.5°F-0.8°C 18.7°F-7.4°C 61% 2.0 mph NNE3.2 kmh NNE 5.0 mph8.0 kmh 30.32 in1026.8 mb 0.00 in0.0 mm 0.00 in/hr0.0 mm/hr 0.00 in0.0 mm
01:30 PM 30.5°F-0.8°C 18.3°F-7.6°C 60% 2.0 mph ESE3.2 kmh ESE 4.0 mph6.4 kmh 30.33 in1027.1 mb 0.00 in0.0 mm 0.00 in/hr0.0 mm/hr 0.00 in0.0 mm
01:35 PM 30.5°F-0.8°C 18.7°F-7.4°C 61% 2.0 mph WSW3.2 kmh WSW 3.0 mph4.8 kmh 30.32 in1026.8 mb 0.00 in0.0 mm 0.00 in/hr0.0 mm/hr 0.00 in0.0 mm
01:40 PM 30.7°F-0.7°C 18.9°F-7.3°C 61% 2.0 mph NNE3.2 kmh NNE 4.0 mph6.4 kmh 30.32 in1026.8 mb 0.00 in0.0 mm 0.00 in/hr0.0 mm/hr 0.00 in0.0 mm
01:45 PM 30.7°F-0.7°C 18.9°F-7.3°C 61% 1.0 mph NNE1.6 kmh NNE 2.0 mph3.2 kmh 30.32 in1026.8 mb 0.00 in0.0 mm 0.00 in/hr0.0 mm/hr 0.00 in0.0 mm
01:50 PM 30.7°F-0.7°C 18.5°F-7.5°C 60% 2.0 mph NNW3.2 kmh NNW 3.0 mph4.8 kmh 30.32 in1026.8 mb 0.00 in0.0 mm 0.00 in/hr0.0 mm/hr 0.00 in0.0 mm
01:55 PM 30.7°F-0.7°C 18.5°F-7.5°C 60% Calm Calm 2.0 mph3.2 kmh 30.32 in1026.8 mb 0.00 in0.0 mm 0.00 in/hr0.0 mm/hr 0.00 in0.0 mm
02:00 PM 30.9°F-0.6°C 19.0°F-7.2°C 61% Calm Calm 2.0 mph3.2 kmh 30.32 in1026.8 mb 0.00 in0.0 mm 0.00 in/hr0.0 mm/hr 0.00 in0.0 mm
02:05 PM 31.1°F-0.5°C 18.8°F-7.3°C 60% 2.0 mph WSW3.2 kmh WSW 4.0 mph6.4 kmh 30.32 in1026.8 mb 0.00 in0.0 mm 0.00 in/hr0.0 mm/hr 0.00 in0.0 mm
02:10 PM 30.9°F-0.6°C 18.6°F-7.4°C 60% 2.0 mph WSW3.2 kmh WSW 4.0 mph6.4 kmh 30.31 in1026.4 mb 0.00 in0.0 mm 0.00 in/hr0.0 mm/hr 0.00 in0.0 mm
02:15 PM 31.1°F-0.5°C 18.8°F-7.3°C 60% 1.0 mph SSW1.6 kmh SSW 2.0 mph3.2 kmh 30.32 in1026.8 mb 0.00 in0.0 mm 0.00 in/hr0.0 mm/hr 0.00 in0.0 mm
02:20 PM 31.1°F-0.5°C 18.4°F-7.6°C 59% Calm Calm 4.0 mph6.4 kmh 30.31 in1026.4 mb 0.00 in0.0 mm 0.00 in/hr0.0 mm/hr 0.00 in0.0 mm
02:25 PM 31.1°F-0.5°C 18.8°F-7.3°C 60% Calm Calm 2.0 mph3.2 kmh 30.31 in1026.4 mb 0.00 in0.0 mm 0.00 in/hr0.0 mm/hr 0.00 in0.0 mm
02:30 PM 31.1°F-0.5°C 18.8°F-7.3°C 60% 1.0 mph WNW1.6 kmh WNW 3.0 mph4.8 kmh 30.31 in1026.4 mb 0.00 in0.0 mm 0.00 in/hr0.0 mm/hr 0.00 in0.0 mm
02:35 PM 31.1°F-0.5°C 18.4°F-7.6°C 59% Calm Calm 2.0 mph3.2 kmh 30.31 in1026.4 mb 0.00 in0.0 mm 0.00 in/hr0.0 mm/hr 0.00 in0.0 mm
02:40 PM 31.2°F-0.4°C 18.6°F-7.4°C 59% 2.0 mph ESE3.2 kmh ESE 3.0 mph4.8 kmh 30.31 in1026.4 mb 0.00 in0.0 mm 0.00 in/hr0.0 mm/hr 0.00 in0.0 mm
02:45 PM 31.2°F-0.4°C 19.0°F-7.2°C 60% 1.0 mph ENE1.6 kmh ENE 2.0 mph3.2 kmh 30.31 in1026.4 mb 0.00 in0.0 mm 0.00 in/hr0.0 mm/hr 0.00 in0.0 mm
02:50 PM 31.2°F-0.4°C 18.6°F-7.4°C 59% 1.0 mph NNE1.6 kmh NNE 4.0 mph6.4 kmh 30.30 in1026.1 mb 0.00 in0.0 mm 0.00 in/hr0.0 mm/hr 0.00 in0.0 mm
02:55 PM 31.1°F-0.5°C 18.0°F-7.8°C 58% 2.0 mph NNE3.2 kmh NNE 4.0 mph6.4 kmh 30.30 in1026.1 mb 0.00 in0.0 mm 0.00 in/hr0.0 mm/hr 0.00 in0.0 mm
03:00 PM 30.7°F-0.7°C 17.7°F-7.9°C 58% Calm Calm 2.0 mph3.2 kmh 30.31 in1026.4 mb 0.00 in0.0 mm 0.00 in/hr0.0 mm/hr 0.00 in0.0 mm
03:05 PM 30.7°F-0.7°C 18.1°F-7.7°C 59% 1.0 mph NNW1.6 kmh NNW 2.0 mph3.2 kmh 30.31 in1026.4 mb 0.00 in0.0 mm 0.00 in/hr0.0 mm/hr 0.00 in0.0 mm
03:10 PM 30.7°F-0.7°C 18.1°F-7.7°C 59% Calm Calm 4.0 mph6.4 kmh 30.31 in1026.4 mb 0.00 in0.0 mm 0.00 in/hr0.0 mm/hr 0.00 in0.0 mm
03:15 PM 30.7°F-0.7°C 18.1°F-7.7°C 59% 1.0 mph WSW1.6 kmh WSW 2.0 mph3.2 kmh 30.31 in1026.4 mb 0.00 in0.0 mm 0.00 in/hr0.0 mm/hr 0.00 in0.0 mm
03:20 PM 30.7°F-0.7°C 18.1°F-7.7°C 59% Calm Calm 2.0 mph3.2 kmh 30.30 in1026.1 mb 0.00 in0.0 mm 0.00 in/hr0.0 mm/hr 0.00 in0.0 mm
03:25 PM 30.5°F-0.8°C 17.9°F-7.8°C 59% Calm Calm 3.0 mph4.8 kmh 30.31 in1026.4 mb 0.00 in0.0 mm 0.00 in/hr0.0 mm/hr 0.00 in0.0 mm
03:30 PM 30.5°F-0.8°C 17.9°F-7.8°C 59% 1.0 mph WNW1.6 kmh WNW 2.0 mph3.2 kmh 30.31 in1026.4 mb 0.00 in0.0 mm 0.00 in/hr0.0 mm/hr 0.00 in0.0 mm
03:35 PM 30.5°F-0.8°C 17.9°F-7.8°C 59% Calm Calm 2.0 mph3.2 kmh 30.31 in1026.4 mb 0.00 in0.0 mm 0.00 in/hr0.0 mm/hr 0.00 in0.0 mm
03:40 PM 30.5°F-0.8°C 17.9°F-7.8°C 59% Calm Calm 2.0 mph3.2 kmh 30.31 in1026.4 mb 0.00 in0.0 mm 0.00 in/hr0.0 mm/hr 0.00 in0.0 mm
03:45 PM 30.3°F-0.9°C 17.7°F-7.9°C 59% Calm Calm 2.0 mph3.2 kmh 30.31 in1026.4 mb 0.00 in0.0 mm 0.00 in/hr0.0 mm/hr 0.00 in0.0 mm
03:50 PM 30.3°F-0.9°C 17.7°F-7.9°C 59% 1.0 mph NNW1.6 kmh NNW 2.0 mph3.2 kmh 30.32 in1026.8 mb 0.00 in0.0 mm 0.00 in/hr0.0 mm/hr 0.00 in0.0 mm
03:55 PM 30.3°F-0.9°C 17.7°F-7.9°C 59% Calm Calm 1.0 mph1.6 kmh 30.31 in1026.4 mb 0.00 in0.0 mm 0.00 in/hr0.0 mm/hr 0.00 in0.0 mm
04:00 PM 30.2°F-1.0°C 17.6°F-8.0°C 59% Calm Calm 2.0 mph3.2 kmh 30.31 in1026.4 mb 0.00 in0.0 mm 0.00 in/hr0.0 mm/hr 0.00 in0.0 mm
04:05 PM 30.2°F-1.0°C 17.6°F-8.0°C 59% Calm Calm 2.0 mph3.2 kmh 30.32 in1026.8 mb 0.00 in0.0 mm 0.00 in/hr0.0 mm/hr 0.00 in0.0 mm
04:10 PM 30.2°F-1.0°C 17.6°F-8.0°C 59% Calm Calm 1.0 mph1.6 kmh 30.32 in1026.8 mb 0.00 in0.0 mm 0.00 in/hr0.0 mm/hr 0.00 in0.0 mm
04:15 PM 30.0°F-1.1°C 17.8°F-7.9°C 60% Calm Calm 1.0 mph1.6 kmh 30.32 in1026.8 mb 0.00 in0.0 mm 0.00 in/hr0.0 mm/hr 0.00 in0.0 mm
04:20 PM 29.8°F-1.2°C 18.0°F-7.8°C 61% Calm Calm 1.0 mph1.6 kmh 30.32 in1026.8 mb 0.00 in0.0 mm 0.00 in/hr0.0 mm/hr 0.00 in0.0 mm
04:25 PM 29.6°F-1.3°C 17.8°F-7.9°C 61% Calm Calm 1.0 mph1.6 kmh 30.33 in1027.1 mb 0.00 in0.0 mm 0.00 in/hr0.0 mm/hr 0.00 in0.0 mm
04:30 PM 29.4°F-1.4°C 18.0°F-7.8°C 62% Calm Calm 2.0 mph3.2 kmh 30.32 in1026.8 mb 0.00 in0.0 mm 0.00 in/hr0.0 mm/hr 0.00 in0.0 mm
04:35 PM 29.4°F-1.4°C 18.0°F-7.8°C 62% Calm Calm 1.0 mph1.6 kmh 30.32 in1026.8 mb 0.00 in0.0 mm 0.00 in/hr0.0 mm/hr 0.00 in0.0 mm
04:40 PM 29.3°F-1.5°C 17.9°F-7.8°C 62% Calm Calm 1.0 mph1.6 kmh 30.33 in1027.1 mb 0.00 in0.0 mm 0.00 in/hr0.0 mm/hr 0.00 in0.0 mm
04:45 PM 29.1°F-1.6°C 17.7°F-7.9°C 62% Calm Calm 2.0 mph3.2 kmh 30.32 in1026.8 mb 0.00 in0.0 mm 0.00 in/hr0.0 mm/hr 0.00 in0.0 mm
04:50 PM 28.9°F-1.7°C 17.5°F-8.1°C 62% Calm Calm -- 30.33 in1027.1 mb 0.00 in0.0 mm 0.00 in/hr0.0 mm/hr 0.00 in0.0 mm
04:55 PM 28.7°F-1.8°C 17.4°F-8.1°C 62% Calm Calm 2.0 mph3.2 kmh 30.32 in1026.8 mb 0.00 in0.0 mm 0.00 in/hr0.0 mm/hr 0.00 in0.0 mm
05:00 PM 28.5°F-1.9°C 17.2°F-8.2°C 62% Calm Calm 1.0 mph1.6 kmh 30.33 in1027.1 mb 0.00 in0.0 mm 0.00 in/hr0.0 mm/hr 0.00 in0.0 mm
05:05 PM 28.4°F-2.0°C 17.4°F-8.1°C 63% Calm Calm 2.0 mph3.2 kmh 30.33 in1027.1 mb 0.00 in0.0 mm 0.00 in/hr0.0 mm/hr 0.00 in0.0 mm
05:10 PM 28.4°F-2.0°C 17.4°F-8.1°C 63% Calm Calm 1.0 mph1.6 kmh 30.33 in1027.1 mb 0.00 in0.0 mm 0.00 in/hr0.0 mm/hr 0.00 in0.0 mm
05:15 PM 28.2°F-2.1°C 15.7°F-9.1°C 59% Calm Calm 1.0 mph1.6 kmh 30.33 in1027.1 mb 0.00 in0.0 mm 0.00 in/hr0.0 mm/hr 0.00 in0.0 mm
05:20 PM 28.2°F-2.1°C 15.7°F-9.1°C 59% Calm Calm 2.0 mph3.2 kmh 30.33 in1027.1 mb 0.00 in0.0 mm 0.00 in/hr0.0 mm/hr 0.00 in0.0 mm
05:25 PM 28.0°F-2.2°C 15.9°F-8.9°C 60% Calm Calm 2.0 mph3.2 kmh 30.34 in1027.4 mb 0.00 in0.0 mm 0.00 in/hr0.0 mm/hr 0.00 in0.0 mm
05:30 PM 28.0°F-2.2°C 15.9°F-8.9°C 60% 1.0 mph NNE1.6 kmh NNE 4.0 mph6.4 kmh 30.34 in1027.4 mb 0.00 in0.0 mm 0.00 in/hr0.0 mm/hr 0.00 in0.0 mm
05:35 PM 28.0°F-2.2°C 15.9°F-8.9°C 60% 1.0 mph NNE1.6 kmh NNE 2.0 mph3.2 kmh 30.34 in1027.4 mb 0.00 in0.0 mm 0.00 in/hr0.0 mm/hr 0.00 in0.0 mm
05:40 PM 28.0°F-2.2°C 15.9°F-8.9°C 60% Calm Calm 2.0 mph3.2 kmh 30.34 in1027.4 mb 0.00 in0.0 mm 0.00 in/hr0.0 mm/hr 0.00 in0.0 mm
05:45 PM 28.0°F-2.2°C 15.9°F-8.9°C 60% Calm Calm 1.0 mph1.6 kmh 30.34 in1027.4 mb 0.00 in0.0 mm 0.00 in/hr0.0 mm/hr 0.00 in0.0 mm
05:50 PM 27.8°F-2.3°C 15.8°F-9.0°C 60% Calm Calm 1.0 mph1.6 kmh 30.35 in1027.8 mb 0.00 in0.0 mm 0.00 in/hr0.0 mm/hr 0.00 in0.0 mm
05:55 PM 27.8°F-2.3°C 15.8°F-9.0°C 60% 1.0 mph WNW1.6 kmh WNW 2.0 mph3.2 kmh 30.35 in1027.8 mb 0.00 in0.0 mm 0.00 in/hr0.0 mm/hr 0.00 in0.0 mm
06:00 PM 28.0°F-2.2°C 15.9°F-8.9°C 60% Calm Calm 1.0 mph1.6 kmh 30.36 in1028.1 mb 0.00 in0.0 mm 0.00 in/hr0.0 mm/hr 0.00 in0.0 mm
06:05 PM 28.0°F-2.2°C 15.9°F-8.9°C 60% Calm Calm 2.0 mph3.2 kmh 30.36 in1028.1 mb 0.00 in0.0 mm 0.00 in/hr0.0 mm/hr 0.00 in0.0 mm
06:10 PM 28.0°F-2.2°C 15.9°F-8.9°C 60% Calm Calm -- 30.36 in1028.1 mb 0.00 in0.0 mm 0.00 in/hr0.0 mm/hr 0.00 in0.0 mm
06:15 PM 28.0°F-2.2°C 16.3°F-8.7°C 61% Calm Calm -- 30.36 in1028.1 mb 0.00 in0.0 mm 0.00 in/hr0.0 mm/hr 0.00 in0.0 mm
06:20 PM 27.8°F-2.3°C 16.1°F-8.8°C 61% Calm Calm -- 30.36 in1028.1 mb 0.00 in0.0 mm 0.00 in/hr0.0 mm/hr 0.00 in0.0 mm
06:25 PM 27.8°F-2.3°C 16.1°F-8.8°C 61% Calm Calm -- 30.35 in1027.8 mb 0.00 in0.0 mm 0.00 in/hr0.0 mm/hr 0.00 in0.0 mm
06:30 PM 27.6°F-2.4°C 16.0°F-8.9°C 61% Calm Calm 1.0 mph1.6 kmh 30.36 in1028.1 mb 0.00 in0.0 mm 0.00 in/hr0.0 mm/hr 0.00 in0.0 mm
06:35 PM 27.5°F-2.5°C 15.8°F-9.0°C 61% Calm Calm 1.0 mph1.6 kmh 30.35 in1027.8 mb 0.00 in0.0 mm 0.00 in/hr0.0 mm/hr 0.00 in0.0 mm
06:40 PM 27.3°F-2.6°C 16.0°F-8.9°C 62% Calm Calm 1.0 mph1.6 kmh 30.35 in1027.8 mb 0.00 in0.0 mm 0.00 in/hr0.0 mm/hr 0.00 in0.0 mm
06:45 PM 26.9°F-2.8°C 15.7°F-9.1°C 62% Calm Calm 1.0 mph1.6 kmh 30.36 in1028.1 mb 0.00 in0.0 mm 0.00 in/hr0.0 mm/hr 0.00 in0.0 mm
06:50 PM 26.7°F-2.9°C 15.5°F-9.2°C 62% Calm Calm -- 30.35 in1027.8 mb 0.00 in0.0 mm 0.00 in/hr0.0 mm/hr 0.00 in0.0 mm
06:55 PM 26.6°F-3.0°C 15.3°F-9.3°C 62% Calm Calm 1.0 mph1.6 kmh 30.36 in1028.1 mb 0.00 in0.0 mm 0.00 in/hr0.0 mm/hr 0.00 in0.0 mm
07:00 PM 26.6°F-3.0°C 15.3°F-9.3°C 62% Calm Calm 1.0 mph1.6 kmh 30.36 in1028.1 mb 0.00 in0.0 mm 0.00 in/hr0.0 mm/hr 0.00 in0.0 mm
07:05 PM 26.6°F-3.0°C 15.3°F-9.3°C 62% Calm Calm -- 30.36 in1028.1 mb 0.00 in0.0 mm 0.00 in/hr0.0 mm/hr 0.00 in0.0 mm
07:10 PM 26.2°F-3.2°C 15.7°F-9.1°C 64% Calm Calm -- 30.36 in1028.1 mb 0.00 in0.0 mm 0.00 in/hr0.0 mm/hr 0.00 in0.0 mm
07:15 PM 26.0°F-3.3°C 15.5°F-9.2°C 64% Calm Calm 1.0 mph1.6 kmh 30.37 in1028.4 mb 0.00 in0.0 mm 0.00 in/hr0.0 mm/hr 0.00 in0.0 mm
07:20 PM 26.0°F-3.3°C 15.5°F-9.2°C 64% Calm Calm 1.0 mph1.6 kmh 30.37 in1028.4 mb 0.00 in0.0 mm 0.00 in/hr0.0 mm/hr 0.00 in0.0 mm
07:25 PM 25.8°F-3.4°C 15.4°F-9.2°C 64% Calm Calm -- 30.37 in1028.4 mb 0.00 in0.0 mm 0.00 in/hr0.0 mm/hr 0.00 in0.0 mm
07:30 PM 25.8°F-3.4°C 15.7°F-9.1°C 65% Calm Calm 1.0 mph1.6 kmh 30.37 in1028.4 mb 0.00 in0.0 mm 0.00 in/hr0.0 mm/hr 0.00 in0.0 mm
07:35 PM 25.7°F-3.5°C 15.5°F-9.2°C 65% Calm Calm -- 30.37 in1028.4 mb 0.00 in0.0 mm 0.00 in/hr0.0 mm/hr 0.00 in0.0 mm
07:40 PM 25.7°F-3.5°C 15.5°F-9.2°C 65% Calm Calm -- 30.37 in1028.4 mb 0.00 in0.0 mm 0.00 in/hr0.0 mm/hr 0.00 in0.0 mm
07:45 PM 25.7°F-3.5°C 15.9°F-8.9°C 66% Calm Calm 2.0 mph3.2 kmh 30.37 in1028.4 mb 0.00 in0.0 mm 0.00 in/hr0.0 mm/hr 0.00 in0.0 mm
07:50 PM 25.7°F-3.5°C 16.2°F-8.8°C 67% Calm Calm 2.0 mph3.2 kmh 30.37 in1028.4 mb 0.00 in0.0 mm 0.00 in/hr0.0 mm/hr 0.00 in0.0 mm
07:55 PM 25.8°F-3.4°C 16.4°F-8.7°C 67% 1.0 mph WNW1.6 kmh WNW 2.0 mph3.2 kmh 30.37 in1028.4 mb 0.00 in0.0 mm 0.00 in/hr0.0 mm/hr 0.00 in0.0 mm
08:00 PM 25.8°F-3.4°C 16.4°F-8.7°C 67% Calm Calm 2.0 mph3.2 kmh 30.37 in1028.4 mb 0.00 in0.0 mm 0.00 in/hr0.0 mm/hr 0.00 in0.0 mm
08:05 PM 26.0°F-3.3°C 16.6°F-8.6°C 67% Calm Calm 4.0 mph6.4 kmh 30.37 in1028.4 mb 0.00 in0.0 mm 0.00 in/hr0.0 mm/hr 0.00 in0.0 mm
08:10 PM 26.0°F-3.3°C 16.6°F-8.6°C 67% Calm Calm 2.0 mph3.2 kmh 30.37 in1028.4 mb 0.00 in0.0 mm 0.00 in/hr0.0 mm/hr 0.00 in0.0 mm
08:15 PM 26.0°F-3.3°C 16.2°F-8.8°C 66% Calm Calm 2.0 mph3.2 kmh 30.37 in1028.4 mb 0.00 in0.0 mm 0.00 in/hr0.0 mm/hr 0.00 in0.0 mm
08:20 PM 25.8°F-3.4°C 16.1°F-8.8°C 66% Calm Calm 2.0 mph3.2 kmh 30.36 in1028.1 mb 0.00 in0.0 mm 0.00 in/hr0.0 mm/hr 0.00 in0.0 mm
08:25 PM 25.8°F-3.4°C 16.1°F-8.8°C 66% Calm Calm 1.0 mph1.6 kmh 30.36 in1028.1 mb 0.00 in0.0 mm 0.00 in/hr0.0 mm/hr 0.00 in0.0 mm
08:30 PM 25.8°F-3.4°C 16.1°F-8.8°C 66% Calm Calm 1.0 mph1.6 kmh 30.36 in1028.1 mb 0.00 in0.0 mm 0.00 in/hr0.0 mm/hr 0.00 in0.0 mm
08:35 PM 25.8°F-3.4°C 16.1°F-8.8°C 66% Calm Calm -- 30.36 in1028.1 mb 0.00 in0.0 mm 0.00 in/hr0.0 mm/hr 0.00 in0.0 mm
08:40 PM 25.7°F-3.5°C 15.9°F-8.9°C 66% Calm Calm 1.0 mph1.6 kmh 30.36 in1028.1 mb 0.00 in0.0 mm 0.00 in/hr0.0 mm/hr 0.00 in0.0 mm
08:45 PM 25.7°F-3.5°C 15.9°F-8.9°C 66% Calm Calm 2.0 mph3.2 kmh 30.35 in1027.8 mb 0.00 in0.0 mm 0.00 in/hr0.0 mm/hr 0.00 in0.0 mm
08:50 PM 25.5°F-3.6°C 15.7°F-9.1°C 66% Calm Calm 1.0 mph1.6 kmh 30.36 in1028.1 mb 0.00 in0.0 mm 0.00 in/hr0.0 mm/hr 0.00 in0.0 mm
08:55 PM 25.5°F-3.6°C 15.7°F-9.1°C 66% Calm Calm -- 30.36 in1028.1 mb 0.00 in0.0 mm 0.00 in/hr0.0 mm/hr 0.00 in0.0 mm
09:00 PM 25.3°F-3.7°C 15.5°F-9.2°C 66% Calm Calm 2.0 mph3.2 kmh 30.36 in1028.1 mb 0.00 in0.0 mm 0.00 in/hr0.0 mm/hr 0.00 in0.0 mm
09:05 PM 25.3°F-3.7°C 15.5°F-9.2°C 66% Calm Calm -- 30.36 in1028.1 mb 0.00 in0.0 mm 0.00 in/hr0.0 mm/hr 0.00 in0.0 mm
09:10 PM 24.9°F-3.9°C 15.2°F-9.3°C 66% Calm Calm -- 30.36 in1028.1 mb 0.00 in0.0 mm 0.00 in/hr0.0 mm/hr 0.00 in0.0 mm
09:15 PM 24.8°F-4.0°C 15.0°F-9.4°C 66% Calm Calm 1.0 mph1.6 kmh 30.36 in1028.1 mb 0.00 in0.0 mm 0.00 in/hr0.0 mm/hr 0.00 in0.0 mm
09:20 PM 24.6°F-4.1°C 15.5°F-9.2°C 68% Calm Calm 2.0 mph3.2 kmh 30.36 in1028.1 mb 0.00 in0.0 mm 0.00 in/hr0.0 mm/hr 0.00 in0.0 mm
09:25 PM 24.4°F-4.2°C 15.7°F-9.1°C 69% 1.0 mph WNW1.6 kmh WNW 2.0 mph3.2 kmh 30.36 in1028.1 mb 0.00 in0.0 mm 0.00 in/hr0.0 mm/hr 0.00 in0.0 mm
09:30 PM 24.4°F-4.2°C 16.0°F-8.9°C 70% Calm Calm 2.0 mph3.2 kmh 30.36 in1028.1 mb 0.00 in0.0 mm 0.00 in/hr0.0 mm/hr 0.00 in0.0 mm
09:35 PM 24.2°F-4.3°C 15.9°F-8.9°C 70% Calm Calm 1.0 mph1.6 kmh 30.36 in1028.1 mb 0.00 in0.0 mm 0.00 in/hr0.0 mm/hr 0.00 in0.0 mm
09:40 PM 24.2°F-4.3°C 15.9°F-8.9°C 70% Calm Calm 1.0 mph1.6 kmh 30.36 in1028.1 mb 0.00 in0.0 mm 0.00 in/hr0.0 mm/hr 0.00 in0.0 mm
09:45 PM 24.0°F-4.4°C 15.7°F-9.1°C 70% Calm Calm -- 30.36 in1028.1 mb 0.00 in0.0 mm 0.00 in/hr0.0 mm/hr 0.00 in0.0 mm
09:50 PM 24.0°F-4.4°C 15.7°F-9.1°C 70% Calm Calm -- 30.36 in1028.1 mb 0.00 in0.0 mm 0.00 in/hr0.0 mm/hr 0.00 in0.0 mm
10:05 PM 23.3°F-4.8°C 15.0°F-9.4°C 70% Calm Calm -- 30.37 in1028.4 mb 0.00 in0.0 mm 0.00 in/hr0.0 mm/hr 0.00 in0.0 mm
10:10 PM 23.3°F-4.8°C 15.0°F-9.4°C 70% Calm Calm -- 30.36 in1028.1 mb 0.00 in0.0 mm 0.00 in/hr0.0 mm/hr 0.00 in0.0 mm
10:15 PM 23.1°F-4.9°C 14.8°F-9.6°C 70% Calm Calm -- 30.37 in1028.4 mb 0.00 in0.0 mm 0.00 in/hr0.0 mm/hr 0.00 in0.0 mm
10:20 PM 23.0°F-5.0°C 14.6°F-9.7°C 70% Calm Calm -- 30.37 in1028.4 mb 0.00 in0.0 mm 0.00 in/hr0.0 mm/hr 0.00 in0.0 mm
10:25 PM 22.8°F-5.1°C 14.8°F-9.6°C 71% Calm Calm -- 30.37 in1028.4 mb 0.00 in0.0 mm 0.00 in/hr0.0 mm/hr 0.00 in0.0 mm
10:30 PM 22.8°F-5.1°C 14.8°F-9.6°C 71% Calm Calm -- 30.36 in1028.1 mb 0.00 in0.0 mm 0.00 in/hr0.0 mm/hr 0.00 in0.0 mm
10:35 PM 22.6°F-5.2°C 14.6°F-9.7°C 71% Calm Calm -- 30.37 in1028.4 mb 0.00 in0.0 mm 0.00 in/hr0.0 mm/hr 0.00 in0.0 mm
10:40 PM 22.4°F-5.3°C 14.5°F-9.7°C 71% Calm Calm -- 30.36 in1028.1 mb 0.00 in0.0 mm 0.00 in/hr0.0 mm/hr 0.00 in0.0 mm
10:45 PM 22.2°F-5.4°C 14.3°F-9.8°C 71% Calm Calm -- 30.36 in1028.1 mb 0.00 in0.0 mm 0.00 in/hr0.0 mm/hr 0.00 in0.0 mm
10:50 PM 22.1°F-5.5°C 14.1°F-9.9°C 71% Calm Calm -- 30.37 in1028.4 mb 0.00 in0.0 mm 0.00 in/hr0.0 mm/hr 0.00 in0.0 mm
10:55 PM 21.9°F-5.6°C 14.3°F-9.8°C 72% Calm Calm -- 30.36 in1028.1 mb 0.00 in0.0 mm 0.00 in/hr0.0 mm/hr 0.00 in0.0 mm
11:00 PM 21.7°F-5.7°C 14.1°F-9.9°C 72% Calm Calm 1.0 mph1.6 kmh 30.37 in1028.4 mb 0.00 in0.0 mm 0.00 in/hr0.0 mm/hr 0.00 in0.0 mm
11:05 PM 21.7°F-5.7°C 14.1°F-9.9°C 72% Calm Calm -- 30.36 in1028.1 mb 0.00 in0.0 mm 0.00 in/hr0.0 mm/hr 0.00 in0.0 mm
11:10 PM 21.5°F-5.8°C 13.9°F-10.1°C 72% Calm Calm -- 30.37 in1028.4 mb 0.00 in0.0 mm 0.00 in/hr0.0 mm/hr 0.00 in0.0 mm
11:15 PM 21.3°F-5.9°C 13.7°F-10.2°C 72% Calm Calm -- 30.37 in1028.4 mb 0.00 in0.0 mm 0.00 in/hr0.0 mm/hr 0.00 in0.0 mm
11:20 PM 21.2°F-6.0°C 13.6°F-10.2°C 72% Calm Calm -- 30.37 in1028.4 mb 0.00 in0.0 mm 0.00 in/hr0.0 mm/hr 0.00 in0.0 mm
11:25 PM 21.2°F-6.0°C 13.6°F-10.2°C 72% Calm Calm -- 30.38 in1028.8 mb 0.00 in0.0 mm 0.00 in/hr0.0 mm/hr 0.00 in0.0 mm
11:30 PM 21.0°F-6.1°C 14.0°F-10.0°C 74% Calm Calm -- 30.37 in1028.4 mb 0.00 in0.0 mm 0.00 in/hr0.0 mm/hr 0.00 in0.0 mm
11:35 PM 21.0°F-6.1°C 14.0°F-10.0°C 74% Calm Calm 1.0 mph1.6 kmh 30.37 in1028.4 mb 0.00 in0.0 mm 0.00 in/hr0.0 mm/hr 0.00 in0.0 mm
11:40 PM 21.0°F-6.1°C 14.0°F-10.0°C 74% Calm Calm 1.0 mph1.6 kmh 30.37 in1028.4 mb 0.00 in0.0 mm 0.00 in/hr0.0 mm/hr 0.00 in0.0 mm
11:45 PM 21.0°F-6.1°C 14.3°F-9.8°C 75% Calm Calm 1.0 mph1.6 kmh 30.37 in1028.4 mb 0.00 in0.0 mm 0.00 in/hr0.0 mm/hr 0.00 in0.0 mm
11:50 PM 21.0°F-6.1°C 14.3°F-9.8°C 75% Calm Calm -- 30.36 in1028.1 mb 0.00 in0.0 mm 0.00 in/hr0.0 mm/hr 0.00 in0.0 mm
11:55 PM 21.0°F-6.1°C 14.3°F-9.8°C 75% Calm Calm -- 30.36 in1028.1 mb 0.00 in0.0 mm 0.00 in/hr0.0 mm/hr 0.00 in0.0 mm